Time;durP1;ratioP1;P1;durP2;ratioP2;P2;SDS_P1;SDS_P2;PMS_P1;PMS_P2;Temp;Humidity;BMP_temperature;BMP_pressure;BME280_temperature;BME280_humidity;BME280_pressure;Samples;Min_cycle;Max_cycle;Signal;HPM_P1;HPM_P2
2023/04/07 00:01:35;;;;;;;14.05;12.52;;;;;;;8.00;100.00;101371.56;5046276;28;20105;-64
2023/04/07 00:04:00;;;;;;;13.30;11.93;;;;;;;7.98;100.00;101368.19;5066164;28;20024;-72
2023/04/07 00:06:26;;;;;;;14.38;12.82;;;;;;;7.98;100.00;101373.69;5065671;28;20040;-73
2023/04/07 00:08:51;;;;;;;12.68;11.38;;;;;;;7.97;100.00;101385.66;5065570;28;20428;-70
2023/04/07 00:11:17;;;;;;;13.57;11.65;;;;;;;7.96;100.00;101375.78;5067173;28;20024;-69
2023/04/07 00:13:42;;;;;;;13.05;10.68;;;;;;;7.95;100.00;101379.53;5065288;28;20028;-72
2023/04/07 00:16:07;;;;;;;12.40;9.77;;;;;;;7.94;100.00;101378.69;5065006;28;20039;-68
2023/04/07 00:18:33;;;;;;;11.70;9.80;;;;;;;7.91;100.00;101379.13;5065370;28;20028;-73
2023/04/07 00:20:58;;;;;;;10.52;8.98;;;;;;;7.91;100.00;101379.13;5065909;28;20176;-69
2023/04/07 00:23:23;;;;;;;9.82;8.57;;;;;;;7.89;100.00;101388.53;5065582;28;20020;-68
2023/04/07 00:25:48;;;;;;;10.43;8.55;;;;;;;7.85;100.00;101379.88;5049185;28;20024;-72
2023/04/07 00:28:14;;;;;;;9.32;8.43;;;;;;;7.83;100.00;101376.53;5064881;28;20503;-71
2023/04/07 00:30:39;;;;;;;8.57;7.20;;;;;;;7.82;100.00;101374.00;5065521;28;20112;-69
2023/04/07 00:33:05;;;;;;;10.02;8.02;;;;;;;7.79;100.00;101376.06;5064894;28;20116;-64
2023/04/07 00:35:30;;;;;;;8.60;7.22;;;;;;;7.79;100.00;101381.53;5066669;28;20151;-72
2023/04/07 00:37:55;;;;;;;7.70;6.55;;;;;;;7.78;100.00;101373.53;5064619;28;20090;-70
2023/04/07 00:40:21;;;;;;;8.77;7.35;;;;;;;7.76;100.00;101371.00;5064414;28;20029;-69
2023/04/07 00:42:46;;;;;;;8.07;7.25;;;;;;;7.76;100.00;101372.91;5065309;28;20028;-69
2023/04/07 00:45:12;;;;;;;10.20;7.50;;;;;;;7.75;100.00;101369.31;5065216;28;20490;-69
2023/04/07 00:47:37;;;;;;;10.77;8.77;;;;;;;7.75;100.00;101371.19;5064615;28;20029;-63
2023/04/07 00:50:03;;;;;;;10.88;9.55;;;;;;;7.73;100.00;101363.19;5067813;28;20031;-68
2023/04/07 00:52:31;;;;;;;10.80;9.77;;;;;;;7.72;100.00;101372.44;5069492;28;20136;-70
2023/04/07 00:54:56;;;;;;;11.00;9.90;;;;;;;7.72;100.00;101380.66;5070223;28;20056;-72
2023/04/07 00:57:22;;;;;;;10.52;9.00;;;;;;;7.71;100.00;101380.88;5069297;28;20044;-71
2023/04/07 00:59:55;;;;;;;9.80;8.80;;;;;;;7.71;100.00;101375.41;5069394;28;20357;-68
2023/04/07 01:02:31;;;;;;;10.85;9.00;;;;;;;7.70;100.00;101380.00;5069209;28;20104;-64
2023/04/07 01:05:02;;;;;;;9.05;7.78;;;;;;;7.69;100.00;101380.19;5070415;28;20032;-70
2023/04/07 01:07:35;;;;;;;9.75;7.78;;;;;;;7.68;100.00;101371.16;5066799;28;20032;-72
2023/04/07 01:10:04;;;;;;;8.95;7.50;;;;;;;7.67;100.00;101371.34;5069454;28;20039;-70
2023/04/07 01:12:46;;;;;;;9.27;7.35;;;;;;;7.68;100.00;101379.34;5068530;28;20470;-69
2023/04/07 01:15:12;;;;;;;8.27;6.72;;;;;;;7.67;100.00;101377.66;5069950;28;20028;-71
2023/04/07 01:17:44;;;;;;;10.25;7.22;;;;;;;7.67;100.00;101371.34;5068975;28;20097;-71
2023/04/07 01:20:15;;;;;;;8.88;7.05;;;;;;;7.66;100.00;101378.72;5069288;28;20531;-72
2023/04/07 01:22:52;;;;;;;9.27;6.88;;;;;;;7.67;100.00;101369.47;5068071;28;20102;-72
2023/04/07 01:25:29;;;;;;;9.07;7.05;;;;;;;7.66;100.00;101380.63;5069939;28;20475;-68
2023/04/07 01:28:01;;;;;;;8.33;7.27;;;;;;;7.66;100.00;101378.72;5066786;28;20555;-64
2023/04/07 01:30:29;;;;;;;10.45;8.30;;;;;;;7.65;100.00;101381.63;5069438;28;20040;-72
2023/04/07 01:32:58;;;;;;;9.38;8.30;;;;;;;7.67;100.00;101383.13;5069128;28;20068;-71
2023/04/07 01:35:25;;;;;;;9.85;8.57;;;;;;;7.67;100.00;101388.59;5068578;28;20049;-67
2023/04/07 01:37:51;;;;;;;13.40;8.40;;;;;;;7.67;100.00;101387.75;5068683;28;20029;-68
2023/04/07 01:40:18;;;;;;;9.73;8.70;;;;;;;7.66;100.00;101391.53;5069094;28;20037;-70
2023/04/07 01:42:44;;;;;;;9.50;8.50;;;;;;;7.65;100.00;101387.94;5067357;28;20051;-64
2023/04/07 01:45:10;;;;;;;7.20;6.00;;;;;;;7.62;100.00;101388.34;5068662;28;20059;-71
2023/04/07 01:47:36;;;;;;;8.05;6.10;;;;;;;7.57;100.00;101399.03;5068092;28;20021;-68
2023/04/07 01:50:06;;;;;;;7.13;5.07;;;;;;;7.53;100.00;101390.38;5069071;28;20123;-71
2023/04/07 01:52:35;;;;;;;5.72;4.35;;;;;;;7.51;100.00;101399.84;5067072;28;20066;-66
2023/04/07 01:55:02;;;;;;;5.03;4.20;;;;;;;7.47;100.00;101393.91;5068315;28;20517;-72
2023/04/07 01:57:27;;;;;;;6.18;4.10;;;;;;;7.46;100.00;101394.97;5068497;28;20701;-69
2023/04/07 01:59:53;;;;;;;6.45;4.00;;;;;;;7.48;100.00;101402.94;5069035;28;20021;-69
2023/04/07 02:02:18;;;;;;;7.32;4.55;;;;;;;7.43;100.00;101398.06;5068432;28;20120;-67
2023/04/07 02:04:51;;;;;;;7.50;4.15;;;;;;;7.43;100.00;101409.00;5068818;28;20529;-71
2023/04/07 02:07:56;;;;;;;8.07;5.43;;;;;;;7.45;100.00;101411.53;5067650;28;20027;-71
2023/04/07 02:10:24;;;;;;;5.63;4.43;;;;;;;7.42;100.00;101412.78;5068422;28;20028;-67
2023/04/07 02:12:51;;;;;;;7.43;4.57;;;;;;;7.45;100.00;101412.41;5067758;28;20024;-70
2023/04/07 02:15:18;;;;;;;6.25;4.10;;;;;;;7.43;100.00;101414.47;5068153;28;20025;-71
2023/04/07 02:17:52;;;;;;;5.57;3.97;;;;;;;7.45;100.00;101412.41;5068156;28;20033;-63
2023/04/07 02:20:19;;;;;;;6.88;4.47;;;;;;;7.45;100.00;101417.00;5068135;28;20598;-70
2023/04/07 02:22:45;;;;;;;8.15;4.72;;;;;;;7.45;100.00;101411.53;5066290;28;20040;-67
2023/04/07 02:25:27;;;;;;;7.05;4.57;;;;;;;7.43;100.00;101411.72;5067035;28;20436;-68
2023/04/07 02:27:54;;;;;;;6.40;4.68;;;;;;;7.42;100.00;101414.66;5056574;28;20021;-69
2023/04/07 02:30:19;;;;;;;8.00;4.80;;;;;;;7.43;100.00;101413.63;5067797;28;20025;-71
2023/04/07 02:32:45;;;;;;;6.03;4.90;;;;;;;7.43;100.00;101414.47;5067770;28;20025;-69
2023/04/07 02:35:11;;;;;;;7.32;4.90;;;;;;;7.44;100.00;101409.84;5067963;28;20041;-66
2023/04/07 02:37:37;;;;;;;8.68;5.38;;;;;;;7.45;100.00;101412.41;5067021;28;20037;-65
2023/04/07 02:40:03;;;;;;;7.47;5.32;;;;;;;7.44;100.00;101409.84;5097712;22;20058;-66
2023/04/07 02:42:28;;;;;;;8.07;5.35;;;;;;;7.45;100.00;101411.53;5004558;28;20026;-67
2023/04/07 02:44:54;;;;;;;6.57;5.25;;;;;;;7.47;100.00;101409.47;5007413;28;20162;-69
2023/04/07 02:47:19;;;;;;;7.32;4.80;;;;;;;7.44;100.00;101407.94;5007035;28;20430;-62
2023/04/07 02:49:44;;;;;;;7.15;5.13;;;;;;;7.44;100.00;101404.38;5008208;28;20037;-65
2023/04/07 02:52:10;;;;;;;7.35;5.38;;;;;;;7.45;100.00;101401.47;5007631;28;20614;-63
2023/04/07 02:54:36;;;;;;;6.60;5.07;;;;;;;7.45;100.00;101406.06;5007692;28;20088;-62
2023/04/07 02:57:01;;;;;;;7.57;5.13;;;;;;;7.44;100.00;101405.22;5008888;28;20057;-60
2023/04/07 02:59:26;;;;;;;8.40;5.13;;;;;;;7.44;100.00;101415.31;5005410;28;20033;-69
2023/04/07 03:01:52;;;;;;;8.15;4.93;;;;;;;7.43;100.00;101405.44;5008455;28;20117;-69
2023/04/07 03:04:17;;;;;;;6.55;5.13;;;;;;;7.43;100.00;101402.69;5007398;28;20192;-68
2023/04/07 03:06:42;;;;;;;6.65;4.65;;;;;;;7.43;100.00;101402.69;5008154;28;20030;-69
2023/04/07 03:09:07;;;;;;;7.47;5.05;;;;;;;7.42;100.00;101404.59;5007082;28;20034;-64
2023/04/07 03:11:33;;;;;;;7.50;4.78;;;;;;;7.45;100.00;101408.78;5007211;28;20046;-68
2023/04/07 03:13:58;;;;;;;7.68;5.22;;;;;;;7.44;100.00;101412.56;5005095;28;20416;-69
2023/04/07 03:16:23;;;;;;;8.35;4.95;;;;;;;7.43;100.00;101402.69;5007118;28;20396;-67
2023/04/07 03:18:49;;;;;;;7.35;5.00;;;;;;;7.43;100.00;101406.28;5006619;28;20034;-61
2023/04/07 03:21:14;;;;;;;8.43;5.15;;;;;;;7.43;100.00;101402.69;5005815;28;20041;-68
2023/04/07 03:23:39;;;;;;;7.45;5.43;;;;;;;7.43;100.00;101409.00;5007520;28;20472;-68
2023/04/07 03:26:05;;;;;;;7.85;4.68;;;;;;;7.42;100.00;101406.47;5006178;28;20121;-68
2023/04/07 03:28:30;;;;;;;7.63;4.88;;;;;;;7.41;100.00;101405.63;5005500;28;20053;-64
2023/04/07 03:30:56;;;;;;;7.10;5.18;;;;;;;7.41;100.00;101407.53;5007163;28;20522;-69
2023/04/07 03:33:21;;;;;;;9.00;5.30;;;;;;;7.40;100.00;101406.69;5006763;28;20045;-71
2023/04/07 03:35:46;;;;;;;10.00;5.28;;;;;;;7.40;100.00;101409.41;5006546;28;20033;-70
2023/04/07 03:38:12;;;;;;;10.32;5.22;;;;;;;7.39;100.00;101409.59;5006918;28;20459;-71
2023/04/07 03:40:37;;;;;;;9.85;5.32;;;;;;;7.41;100.00;101422.03;5007023;28;20046;-70
2023/04/07 03:43:02;;;;;;;8.60;5.32;;;;;;;7.41;100.00;101415.72;5005666;28;20105;-68
2023/04/07 03:45:27;;;;;;;8.02;4.80;;;;;;;7.40;100.00;101422.19;5005965;28;20201;-71
2023/04/07 03:47:53;;;;;;;8.80;5.07;;;;;;;7.39;100.00;101415.06;4988462;28;20052;-72
2023/04/07 03:50:18;;;;;;;7.85;5.28;;;;;;;7.39;100.00;101415.91;5005402;28;20029;-65
2023/04/07 03:52:44;;;;;;;8.07;4.97;;;;;;;7.37;100.00;101415.25;5005025;28;20029;-71
2023/04/07 03:55:09;;;;;;;8.25;5.18;;;;;;;7.39;100.00;101423.25;5004343;28;20034;-71
2023/04/07 03:57:35;;;;;;;9.48;5.75;;;;;;;7.38;100.00;101427.03;5004816;28;20076;-63
2023/04/07 04:00:00;;;;;;;8.77;4.80;;;;;;;7.38;100.00;101427.88;5006830;28;20386;-70
2023/04/07 04:02:26;;;;;;;9.23;5.15;;;;;;;7.36;100.00;101424.50;5006509;28;20065;-71
2023/04/07 04:04:51;;;;;;;7.63;4.82;;;;;;;7.36;100.00;101424.50;5007033;28;20037;-69
2023/04/07 04:07:16;;;;;;;7.75;5.00;;;;;;;7.36;100.00;101432.69;5006480;28;20138;-71
2023/04/07 04:09:41;;;;;;;7.90;4.68;;;;;;;7.36;100.00;101429.97;5007604;28;20026;-70
2023/04/07 04:12:07;;;;;;;8.73;4.97;;;;;;;7.35;100.00;101427.41;5002045;28;20030;-68
2023/04/07 04:14:32;;;;;;;11.20;5.50;;;;;;;7.34;100.00;101429.28;5005563;28;20021;-71
2023/04/07 04:16:57;;;;;;;8.68;5.53;;;;;;;7.34;100.00;101418.38;5005515;28;20076;-68
2023/04/07 04:19:22;;;;;;;9.68;5.13;;;;;;;7.33;100.00;101430.34;5005841;28;20030;-63
2023/04/07 04:21:48;;;;;;;10.60;5.40;;;;;;;7.31;100.00;101421.50;5006412;28;20673;-71
2023/04/07 04:24:13;;;;;;;9.55;5.35;;;;;;;7.29;100.00;101424.41;5004956;28;20036;-66
2023/04/07 04:26:38;;;;;;;9.40;5.35;;;;;;;7.28;100.00;101428.19;5006181;28;20064;-70
2023/04/07 04:29:04;;;;;;;10.68;5.80;;;;;;;7.26;100.00;101423.97;5005907;28;20026;-71
2023/04/07 04:31:29;;;;;;;9.13;6.07;;;;;;;7.23;100.00;101424.34;5006420;28;20032;-66
2023/04/07 04:33:54;;;;;;;11.02;6.40;;;;;;;7.19;100.00;101423.88;4988703;28;20483;-68
2023/04/07 04:36:20;;;;;;;10.02;7.20;;;;;;;7.16;100.00;101427.03;5005895;28;20022;-70
2023/04/07 04:38:45;;;;;;;13.23;7.55;;;;;;;7.14;100.00;101431.81;5006221;28;20061;-67
2023/04/07 04:41:10;;;;;;;11.30;7.65;;;;;;;7.11;100.00;101437.69;5006294;28;20050;-66
2023/04/07 04:43:36;;;;;;;13.48;7.95;;;;;;;7.10;100.00;101435.16;5004953;28;20524;-67
2023/04/07 04:46:01;;;;;;;12.35;7.95;;;;;;;7.05;100.00;101438.47;5006781;28;20081;-68
2023/04/07 04:48:26;;;;;;;11.43;8.07;;;;;;;7.04;100.00;101444.94;5006226;28;20026;-70
2023/04/07 04:50:52;;;;;;;9.57;7.47;;;;;;;7.03;100.00;101448.72;5006065;28;20105;-68
2023/04/07 04:53:17;;;;;;;9.30;7.95;;;;;;;7.00;100.00;101452.69;5005744;28;20049;-69
2023/04/07 04:55:45;;;;;;;11.63;7.97;;;;;;;7.01;100.00;101453.53;5006242;28;20030;-68
2023/04/07 04:58:11;;;;;;;11.40;7.57;;;;;;;7.01;100.00;101459.00;5005219;28;20049;-67
2023/04/07 05:00:36;;;;;;;12.20;7.90;;;;;;;7.02;100.00;101457.97;5006001;28;20384;-59
2023/04/07 05:03:03;;;;;;;14.05;7.93;;;;;;;7.05;100.00;101454.03;5006398;28;20111;-70
2023/04/07 05:05:28;;;;;;;12.18;8.15;;;;;;;7.07;100.00;101457.38;5001699;28;20057;-69
2023/04/07 05:07:53;;;;;;;11.45;8.52;;;;;;;7.08;100.00;101461.81;5005052;28;20061;-65
2023/04/07 05:10:18;;;;;;;11.43;8.13;;;;;;;7.11;100.00;101458.69;5004413;28;20026;-67
2023/04/07 05:12:44;;;;;;;11.00;7.80;;;;;;;7.13;100.00;101462.91;4998181;28;20027;-70
2023/04/07 05:15:09;;;;;;;13.23;7.90;;;;;;;7.15;100.00;101465.47;4994370;28;20443;-70
2023/04/07 05:17:35;;;;;;;11.02;7.90;;;;;;;7.16;100.00;101465.28;5016221;28;20611;-69
2023/04/07 05:20:00;;;;;;;13.88;8.38;;;;;;;7.17;100.00;101463.38;5005527;28;20079;-70
2023/04/07 05:22:25;;;;;;;13.85;8.38;;;;;;;7.19;100.00;101470.34;5004775;28;20037;-67
2023/04/07 05:24:51;;;;;;;11.02;7.97;;;;;;;7.18;100.00;101482.31;5005189;28;20044;-67
2023/04/07 05:27:16;;;;;;;14.55;8.00;;;;;;;7.20;100.00;101474.78;5003761;28;20034;-66
2023/04/07 05:29:41;;;;;;;11.45;8.48;;;;;;;7.21;100.00;101471.00;5004676;28;20110;-70
2023/04/07 05:32:07;;;;;;;12.93;8.07;;;;;;;7.23;100.00;101477.13;5005203;28;20042;-67
2023/04/07 05:34:32;;;;;;;11.57;7.90;;;;;;;7.26;100.00;101479.47;5005384;28;20113;-71
2023/04/07 05:36:57;;;;;;;12.55;7.88;;;;;;;7.23;100.00;101477.13;5007619;28;20440;-63
2023/04/07 05:39:22;;;;;;;12.77;8.02;;;;;;;7.26;100.00;101482.19;5007834;28;20076;-68
2023/04/07 05:41:48;;;;;;;12.68;8.30;;;;;;;7.27;100.00;101481.16;5008943;28;20033;-66
2023/04/07 05:44:13;;;;;;;13.20;8.25;;;;;;;7.29;100.00;101478.22;5007404;28;20050;-67
2023/04/07 05:46:38;;;;;;;12.45;7.65;;;;;;;7.31;100.00;101483.50;5007809;28;20029;-62
2023/04/07 05:49:04;;;;;;;12.02;8.13;;;;;;;7.34;100.00;101488.56;5009168;28;20507;-69
2023/04/07 05:51:30;;;;;;;14.75;8.55;;;;;;;7.32;100.00;101477.84;5007948;28;20030;-70
2023/04/07 05:53:55;;;;;;;12.23;8.18;;;;;;;7.32;100.00;101488.78;5007421;28;20030;-71
2023/04/07 05:56:20;;;;;;;12.13;8.80;;;;;;;7.34;100.00;101489.41;5008100;28;20089;-67
2023/04/07 05:58:46;;;;;;;14.65;8.70;;;;;;;7.35;100.00;101493.00;5007422;28;20053;-62
2023/04/07 06:01:11;;;;;;;11.63;8.35;;;;;;;7.35;100.00;101482.06;5008256;28;20026;-68
2023/04/07 06:03:36;;;;;;;11.73;8.38;;;;;;;7.36;100.00;101484.63;5008561;28;20022;-63
2023/04/07 06:06:02;;;;;;;11.18;8.25;;;;;;;7.41;100.00;101487.63;5008562;28;20044;-70
2023/04/07 06:08:27;;;;;;;14.60;8.75;;;;;;;7.44;100.00;101494.56;5006844;28;20037;-69
2023/04/07 06:10:52;;;;;;;15.07;9.57;;;;;;;7.45;100.00;101493.50;5008452;28;20400;-70
2023/04/07 06:13:18;;;;;;;11.95;8.45;;;;;;;7.45;100.00;101498.97;5007928;28;20040;-70
2023/04/07 06:15:43;;;;;;;13.13;8.73;;;;;;;7.47;100.00;101499.66;5008315;28;20034;-67
2023/04/07 06:18:08;;;;;;;14.82;8.70;;;;;;;7.48;100.00;101499.44;5007297;28;20029;-69
2023/04/07 06:20:34;;;;;;;14.95;8.73;;;;;;;7.52;100.00;101502.66;5008428;28;20080;-68
2023/04/07 06:23:00;;;;;;;13.10;8.90;;;;;;;7.54;100.00;101509.59;5007849;28;20037;-70
2023/04/07 06:25:25;;;;;;;13.18;9.20;;;;;;;7.56;100.00;101512.16;5011299;28;20033;-70
2023/04/07 06:27:50;;;;;;;12.70;9.68;;;;;;;7.57;100.00;101508.38;5027224;28;20474;-69
2023/04/07 06:30:16;;;;;;;13.15;9.65;;;;;;;7.55;100.00;101510.44;5027476;28;20033;-64
2023/04/07 06:32:41;;;;;;;13.82;9.63;;;;;;;7.57;100.00;101513.84;5027597;28;20643;-67
2023/04/07 06:35:07;;;;;;;13.63;9.30;;;;;;;7.59;100.00;101517.22;5027825;28;20528;-61
2023/04/07 06:37:32;;;;;;;14.75;10.35;;;;;;;7.59;100.00;101513.63;5027510;28;20040;-70
2023/04/07 06:39:57;;;;;;;13.55;9.98;;;;;;;7.63;100.00;101518.53;5026727;28;20564;-64
2023/04/07 06:42:22;;;;;;;15.57;9.95;;;;;;;7.65;100.00;101526.53;5010787;28;20057;-68
2023/04/07 06:44:48;;;;;;;11.73;9.50;;;;;;;7.67;100.00;101529.94;4988825;28;20053;-67
2023/04/07 06:47:13;;;;;;;14.38;10.10;;;;;;;7.70;100.00;101526.78;4987247;28;20353;-66
2023/04/07 06:49:38;;;;;;;15.30;10.40;;;;;;;7.70;100.00;101526.78;4987768;28;20358;-69
2023/04/07 06:52:05;;;;;;;13.73;9.90;;;;;;;7.73;100.00;101534.63;4988581;28;20026;-69
2023/04/07 06:54:30;;;;;;;12.15;9.90;;;;;;;7.76;100.00;101534.22;4987453;28;20022;-65
2023/04/07 06:56:56;;;;;;;14.40;9.95;;;;;;;7.80;100.00;101536.34;4987905;28;20151;-62
2023/04/07 06:59:21;;;;;;;14.63;10.00;;;;;;;7.87;100.00;101535.59;4987319;28;20030;-67
2023/04/07 07:01:48;;;;;;;12.32;9.45;;;;;;;7.90;100.00;101538.75;4988443;28;20025;-66
2023/04/07 07:04:13;;;;;;;12.95;9.73;;;;;;;7.95;100.00;101543.66;4987868;28;20117;-69
2023/04/07 07:06:38;;;;;;;12.20;10.07;;;;;;;8.01;100.00;101540.16;4988058;28;20105;-69
2023/04/07 07:09:03;;;;;;;15.93;10.07;;;;;;;8.05;100.00;101544.16;4987553;28;20057;-69
2023/04/07 07:11:29;;;;;;;13.38;9.95;;;;;;;8.11;100.00;101540.66;4988074;28;20031;-70
2023/04/07 07:13:54;;;;;;;13.52;10.80;;;;;;;8.13;100.00;101557.72;4986388;28;20041;-67
2023/04/07 07:16:22;;;;;;;13.38;10.18;;;;;;;8.14;100.00;101553.94;4987103;28;20109;-67
2023/04/07 07:18:48;;;;;;;12.98;10.10;;;;;;;8.11;100.00;101548.00;5005249;28;20030;-69
2023/04/07 07:21:13;;;;;;;14.38;9.40;;;;;;;8.08;100.00;101554.72;5006298;28;20036;-70
2023/04/07 07:23:38;;;;;;;13.52;9.65;;;;;;;8.14;100.00;101558.56;5006305;28;20032;-63
2023/04/07 07:26:03;;;;;;;11.23;8.85;;;;;;;8.20;100.00;101546.81;5006479;28;20033;-63
2023/04/07 07:28:29;;;;;;;12.30;9.05;;;;;;;8.29;100.00;101554.69;5004777;28;20076;-65
2023/04/07 07:30:54;;;;;;;11.65;8.35;;;;;;;8.43;100.00;101557.56;5007331;28;20030;-65
2023/04/07 07:33:21;;;;;;;11.57;9.00;;;;;;;8.53;100.00;101558.91;5005875;28;20025;-69
2023/04/07 07:35:47;;;;;;;11.25;8.02;;;;;;;8.59;100.00;101557.25;5006384;28;20033;-69
2023/04/07 07:38:12;;;;;;;9.05;7.18;;;;;;;8.62;100.00;101566.94;5006605;28;20381;-64
2023/04/07 07:40:37;;;;;;;8.60;6.28;;;;;;;8.62;100.00;101567.81;5007093;28;20438;-68
2023/04/07 07:43:02;;;;;;;6.85;4.93;;;;;;;8.63;100.00;101569.50;5005382;28;20054;-64
2023/04/07 07:45:28;;;;;;;7.38;4.72;;;;;;;8.65;100.00;101580.25;5005855;28;20029;-68
2023/04/07 07:47:53;;;;;;;7.47;4.10;;;;;;;8.67;100.00;101578.13;5007385;28;20034;-63
2023/04/07 07:50:18;;;;;;;8.05;3.90;;;;;;;8.66;100.00;101577.28;5006899;28;20045;-70
2023/04/07 07:52:44;;;;;;;6.15;3.72;;;;;;;8.60;100.00;101580.84;5005692;28;20669;-69
2023/04/07 07:55:10;;;;;;;7.85;4.10;;;;;;;8.54;100.00;101582.50;5008008;28;20477;-69
2023/04/07 07:57:35;;;;;;;6.10;4.43;;;;;;;8.60;100.00;101582.75;5006825;28;20018;-64
2023/04/07 08:00:02;;;;;;;6.28;4.10;;;;;;;8.62;100.00;101578.78;5007634;28;20030;-69
2023/04/07 08:02:30;;;;;;;8.80;7.43;;;;;;;8.64;100.00;101582.13;5006039;28;20515;-63
2023/04/07 08:04:56;;;;;;;6.88;4.25;;;;;;;8.69;100.00;101582.38;5007539;28;20030;-66
2023/04/07 08:07:22;;;;;;;6.28;3.80;;;;;;;8.78;100.00;101588.56;5006869;28;20037;-63
2023/04/07 08:09:47;;;;;;;6.20;3.90;;;;;;;8.86;100.00;101595.75;5007558;28;20030;-62
2023/04/07 08:12:12;;;;;;;6.43;4.05;;;;;;;8.89;100.00;101595.38;5006529;28;20048;-66
2023/04/07 08:14:37;;;;;;;5.80;3.53;;;;;;;8.93;100.00;101596.66;5007549;28;20053;-69
2023/04/07 08:17:03;;;;;;;6.80;3.95;;;;;;;8.89;100.00;101600.84;5007770;28;20456;-71
2023/04/07 08:19:28;;;;;;;5.95;3.50;;;;;;;8.87;100.00;101603.81;5007536;28;20080;-70
2023/04/07 08:21:53;;;;;;;5.70;4.00;;;;;;;8.89;100.00;101603.59;5007316;28;20100;-65
2023/04/07 08:24:19;;;;;;;7.60;4.53;;;;;;;8.90;100.00;101610.75;5006878;28;20034;-67
2023/04/07 08:26:44;;;;;;;6.47;3.42;;;;;;;8.90;100.00;101608.00;5007012;28;20018;-70
2023/04/07 08:29:09;;;;;;;5.32;3.00;;;;;;;8.87;100.00;101605.66;5007098;28;20044;-70
2023/04/07 08:31:35;;;;;;;7.32;3.42;;;;;;;8.83;100.00;101613.47;5007831;28;20088;-63
2023/04/07 08:34:00;;;;;;;6.47;3.63;;;;;;;8.83;100.00;101614.31;5007079;28;20072;-69
2023/04/07 08:36:26;;;;;;;5.95;3.60;;;;;;;8.88;100.00;101621.09;5007003;28;20140;-69
2023/04/07 08:38:52;;;;;;;6.63;3.47;;;;;;;8.90;100.00;101617.06;5006786;28;20373;-65
2023/04/07 08:41:26;;;;;;;4.95;3.10;;;;;;;8.98;100.00;101613.34;5007013;28;20145;-70
2023/04/07 08:43:52;;;;;;;5.40;3.03;;;;;;;9.07;100.00;101615.72;5007113;28;20049;-68
2023/04/07 08:46:21;;;;;;;6.82;3.40;;;;;;;9.25;100.00;101620.66;5007224;28;20461;-64
2023/04/07 08:48:50;;;;;;;5.38;3.30;;;;;;;9.44;100.00;101623.72;5007296;28;20034;-70
2023/04/07 08:51:26;;;;;;;6.13;3.22;;;;;;;9.62;100.00;101627.56;4989083;28;20483;-70
2023/04/07 08:53:53;;;;;;;5.03;2.60;;;;;;;9.68;100.00;101623.16;5006619;28;20495;-67
2023/04/07 08:56:20;;;;;;;5.18;2.47;;;;;;;9.74;100.00;101636.06;5001599;28;20453;-69
2023/04/07 08:58:47;;;;;;;4.97;2.42;;;;;;;9.81;100.00;101631.44;5002607;28;20068;-69
2023/04/07 09:01:14;;;;;;;2.97;2.17;;;;;;;9.85;100.00;101631.88;5007470;28;20033;-65
2023/04/07 09:03:41;;;;;;;5.32;2.50;;;;;;;9.85;100.00;101629.97;5006373;28;20056;-69
2023/04/07 09:06:06;;;;;;;5.32;2.40;;;;;;;9.88;100.00;101632.31;5005089;28;20109;-64
2023/04/07 09:08:31;;;;;;;4.22;2.17;;;;;;;9.91;100.00;101644.75;5005650;28;20121;-70
2023/04/07 09:10:57;;;;;;;5.40;2.55;;;;;;;9.88;100.00;101640.53;5007595;28;20468;-68
2023/04/07 09:13:23;;;;;;;4.45;2.40;;;;;;;9.79;100.00;101635.44;5009288;28;20029;-65
2023/04/07 09:15:49;;;;;;;7.65;2.42;;;;;;;9.77;100.00;101640.28;5010845;28;20057;-62
2023/04/07 09:18:15;;;;;;;6.47;2.75;;;;;;;9.69;100.00;101641.31;5010196;28;20424;-70
2023/04/07 09:20:57;;;;;;;4.57;2.53;;;;;;;9.62;100.00;101641.28;5011365;28;20377;-62
2023/04/07 09:23:40;;;;;;;4.25;2.70;;;;;;;9.53;100.00;101647.13;5009504;28;20030;-65
2023/04/07 09:26:22;;;;;;;6.90;2.65;;;;;;;9.54;100.00;101654.34;5009501;28;20021;-71
2023/04/07 09:28:58;;;;;;;5.32;2.40;;;;;;;9.51;100.00;101654.72;5010899;28;20504;-71
2023/04/07 09:31:51;;;;;;;4.90;2.60;;;;;;;9.60;100.00;101653.50;5009877;28;20033;-71
2023/04/07 09:34:24;;;;;;;5.72;2.50;;;;;;;9.56;100.00;101652.22;5006640;28;20046;-68
2023/04/07 09:36:50;;;;;;;5.60;2.38;;;;;;;9.55;100.00;101650.53;5010257;28;20755;-70
2023/04/07 09:39:15;;;;;;;5.65;2.78;;;;;;;9.53;100.00;101647.13;5009707;28;20061;-66
2023/04/07 09:41:41;;;;;;;6.13;2.60;;;;;;;9.53;100.00;101653.50;5008712;28;20045;-67
2023/04/07 09:44:06;;;;;;;6.60;2.85;;;;;;;9.52;100.00;101650.94;5009292;28;20110;-60
2023/04/07 09:46:32;;;;;;;6.18;2.72;;;;;;;9.54;100.00;101646.09;5009072;28;20440;-71
2023/04/07 09:49:04;;;;;;;5.38;2.50;;;;;;;9.57;100.00;101646.53;5007647;28;20022;-67
2023/04/07 09:51:29;;;;;;;5.13;2.25;;;;;;;9.62;100.00;101654.13;5007689;28;20083;-69
2023/04/07 09:53:55;;;;;;;6.15;2.67;;;;;;;9.69;100.00;101645.97;5007765;28;20124;-69
2023/04/07 09:56:23;;;;;;;5.28;2.70;;;;;;;9.72;100.00;101656.50;5005669;28;20029;-69
2023/04/07 09:58:52;;;;;;;6.88;2.78;;;;;;;9.68;100.00;101653.34;5009255;28;20033;-64
2023/04/07 10:01:20;;;;;;;5.97;3.33;;;;;;;9.62;100.00;101657.72;5007720;28;20636;-67
2023/04/07 10:03:46;;;;;;;5.45;2.40;;;;;;;9.57;100.00;101659.38;5009457;28;20342;-68
2023/04/07 10:06:12;;;;;;;6.07;2.63;;;;;;;9.43;100.00;101664.00;5010641;28;20392;-68
2023/04/07 10:08:40;;;;;;;6.15;2.80;;;;;;;9.35;100.00;101665.00;5010016;28;20033;-68
2023/04/07 10:11:06;;;;;;;8.27;3.05;;;;;;;9.29;100.00;101670.44;5008149;28;20014;-68
2023/04/07 10:13:33;;;;;;;8.20;2.70;;;;;;;9.25;100.00;101672.72;5009505;28;20088;-64
2023/04/07 10:16:01;;;;;;;7.67;2.50;;;;;;;9.28;100.00;101674.25;4991929;28;20030;-68
2023/04/07 10:18:30;;;;;;;6.28;2.53;;;;;;;9.32;100.00;101672.75;5009675;28;20930;-70
2023/04/07 10:20:57;;;;;;;4.95;1.92;;;;;;;9.44;100.00;101682.13;5009870;28;20073;-69
2023/04/07 10:23:27;;;;;;;4.95;2.30;;;;;;;9.62;100.00;101673.34;5007585;28;20026;-63
2023/04/07 10:25:55;;;;;;;4.72;2.08;;;;;;;9.79;100.00;101680.19;5009488;28;20061;-65
2023/04/07 10:28:23;;;;;;;5.45;2.00;;;;;;;9.88;100.00;101681.69;5008380;28;20026;-65
2023/04/07 10:30:50;;;;;;;4.47;1.92;;;;;;;9.89;100.00;101671.56;5009087;28;20022;-69
2023/04/07 10:33:15;;;;;;;5.30;2.25;;;;;;;9.80;100.00;101681.03;5008604;28;20025;-70
2023/04/07 10:36:03;;;;;;;5.50;2.30;;;;;;;9.86;100.00;101680.19;5008574;28;20026;-70
2023/04/07 10:38:28;;;;;;;;;;;;;;;10.00;100.00;101683.84;5006768;28;20605;-70
2023/04/07 10:40:53;;;;;;;5.60;2.20;;;;;;;10.07;100.00;101692.94;5009192;28;19921;-67
2023/04/07 10:43:40;;;;;;;5.35;2.47;;;;;;;10.14;100.00;101696.56;5007858;28;20029;-66
2023/04/07 10:46:06;;;;;;;4.82;2.17;;;;;;;10.07;100.00;101699.25;5008878;28;20092;-71
2023/04/07 10:48:32;;;;;;;6.03;2.58;;;;;;;9.96;100.00;101696.28;5008839;28;20034;-63
2023/04/07 10:51:03;;;;;;;7.88;2.85;;;;;;;9.78;100.00;101694.94;5007447;28;20030;-67
2023/04/07 10:53:28;;;;;;;5.15;2.78;;;;;;;9.62;100.00;101690.63;5006765;28;20704;-70
2023/04/07 10:55:55;;;;;;;5.97;3.03;;;;;;;9.57;100.00;101695.88;5009119;28;20034;-68
2023/04/07 10:58:33;;;;;;;6.45;3.15;;;;;;;9.55;100.00;101700.75;5007425;28;20029;-68
2023/04/07 11:01:13;;;;;;;6.13;2.60;;;;;;;9.56;100.00;101699.69;5008882;28;20060;-62
2023/04/07 11:03:52;;;;;;;7.45;3.33;;;;;;;9.53;100.00;101705.59;5007609;28;20654;-69
2023/04/07 11:06:17;;;;;;;6.55;2.65;;;;;;;9.48;100.00;101699.00;5008140;28;20029;-71
2023/04/07 11:08:44;;;;;;;6.95;3.03;;;;;;;9.41;100.00;101698.13;5008356;28;20014;-69
2023/04/07 11:11:11;;;;;;;7.20;2.60;;;;;;;9.36;100.00;101702.31;5006767;28;20468;-67
2023/04/07 11:13:40;;;;;;;6.78;2.75;;;;;;;9.36;100.00;101704.22;5008425;28;20547;-67
2023/04/07 11:16:06;;;;;;;5.68;2.42;;;;;;;9.35;100.00;101706.13;5009329;28;20021;-69
2023/04/07 11:18:32;;;;;;;6.43;2.88;;;;;;;9.41;100.00;101706.34;5008743;28;20106;-71
2023/04/07 11:20:57;;;;;;;6.50;2.40;;;;;;;9.48;100.00;101701.75;5007478;28;20158;-67